sensor_id;sensor_type;location;lat;lon;timestamp;P1;durP1;ratioP1;P2;durP2;ratioP2
3465;SDS011;1747;48.884;9.160;2022-08-01T04:56:14;3.80;;;1.92;;
3465;SDS011;1747;48.884;9.160;2022-08-01T04:58:42;2.45;;;2.25;;
3465;SDS011;1747;48.884;9.160;2022-08-01T05:01:10;3.55;;;2.13;;
3465;SDS011;1747;48.884;9.160;2022-08-01T05:03:37;2.80;;;2.08;;
3465;SDS011;1747;48.884;9.160;2022-08-01T05:06:04;4.10;;;2.53;;
3465;SDS011;1747;48.884;9.160;2022-08-01T05:08:31;2.60;;;2.10;;
3465;SDS011;1747;48.884;9.160;2022-08-01T05:10:57;3.72;;;2.25;;
3465;SDS011;1747;48.884;9.160;2022-08-01T05:13:27;2.45;;;2.25;;
3465;SDS011;1747;48.884;9.160;2022-08-01T05:15:54;2.30;;;1.75;;
3465;SDS011;1747;48.884;9.160;2022-08-01T05:18:21;3.50;;;2.13;;
3465;SDS011;1747;48.884;9.160;2022-08-01T05:20:48;4.40;;;2.08;;
3465;SDS011;1747;48.884;9.160;2022-08-01T05:23:15;4.68;;;2.30;;
3465;SDS011;1747;48.884;9.160;2022-08-01T05:25:43;3.58;;;2.53;;
3465;SDS011;1747;48.884;9.160;2022-08-01T05:28:09;3.15;;;2.17;;
3465;SDS011;1747;48.884;9.160;2022-08-01T05:30:38;2.65;;;2.05;;
3465;SDS011;1747;48.884;9.160;2022-08-01T05:33:05;3.83;;;2.22;;
3465;SDS011;1747;48.884;9.160;2022-08-01T05:35:32;2.83;;;2.30;;
3465;SDS011;1747;48.884;9.160;2022-08-01T05:37:59;4.47;;;2.42;;
3465;SDS011;1747;48.884;9.160;2022-08-01T05:40:25;4.60;;;2.40;;
3465;SDS011;1747;48.884;9.160;2022-08-01T05:42:52;2.88;;;2.00;;
3465;SDS011;1747;48.884;9.160;2022-08-01T05:45:19;2.05;;;1.80;;
3465;SDS011;1747;48.884;9.160;2022-08-01T05:47:47;5.13;;;2.10;;
3465;SDS011;1747;48.884;9.160;2022-08-01T05:50:14;6.38;;;2.13;;
3465;SDS011;1747;48.884;9.160;2022-08-01T05:52:41;3.70;;;2.40;;
3465;SDS011;1747;48.884;9.160;2022-08-01T05:55:08;6.10;;;2.10;;
3465;SDS011;1747;48.884;9.160;2022-08-01T05:57:35;3.05;;;2.15;;
3465;SDS011;1747;48.884;9.160;2022-08-01T06:00:02;2.50;;;1.90;;
3465;SDS011;1747;48.884;9.160;2022-08-01T06:02:30;3.53;;;1.80;;
3465;SDS011;1747;48.884;9.160;2022-08-01T06:04:58;2.50;;;2.17;;
3465;SDS011;1747;48.884;9.160;2022-08-01T06:07:25;2.40;;;2.20;;
3465;SDS011;1747;48.884;9.160;2022-08-01T06:09:52;2.65;;;2.30;;
3465;SDS011;1747;48.884;9.160;2022-08-01T06:12:18;4.38;;;1.70;;
3465;SDS011;1747;48.884;9.160;2022-08-01T06:14:45;3.90;;;1.92;;
3465;SDS011;1747;48.884;9.160;2022-08-01T06:17:12;2.08;;;1.60;;
3465;SDS011;1747;48.884;9.160;2022-08-01T06:19:39;4.50;;;1.73;;
3465;SDS011;1747;48.884;9.160;2022-08-01T06:22:07;4.97;;;1.60;;
3465;SDS011;1747;48.884;9.160;2022-08-01T06:24:34;2.08;;;1.85;;
3465;SDS011;1747;48.884;9.160;2022-08-01T06:27:01;4.40;;;2.28;;
3465;SDS011;1747;48.884;9.160;2022-08-01T06:29:29;4.97;;;1.67;;
3465;SDS011;1747;48.884;9.160;2022-08-01T06:31:57;3.92;;;1.60;;
3465;SDS011;1747;48.884;9.160;2022-08-01T06:34:24;3.53;;;1.60;;
3465;SDS011;1747;48.884;9.160;2022-08-01T06:36:51;4.32;;;1.40;;
3465;SDS011;1747;48.884;9.160;2022-08-01T06:39:19;6.30;;;1.50;;
3465;SDS011;1747;48.884;9.160;2022-08-01T06:41:46;4.88;;;1.63;;
3465;SDS011;1747;48.884;9.160;2022-08-01T06:44:13;3.00;;;1.60;;
3465;SDS011;1747;48.884;9.160;2022-08-01T06:46:39;6.45;;;1.35;;
3465;SDS011;1747;48.884;9.160;2022-08-01T06:49:06;2.42;;;1.70;;
3465;SDS011;1747;48.884;9.160;2022-08-01T06:51:33;3.15;;;1.40;;
3465;SDS011;1747;48.884;9.160;2022-08-01T06:54:00;3.75;;;1.33;;
3465;SDS011;1747;48.884;9.160;2022-08-01T06:56:28;4.28;;;1.27;;
3465;SDS011;1747;48.884;9.160;2022-08-01T06:58:55;4.70;;;1.30;;
3465;SDS011;1747;48.884;9.160;2022-08-01T07:01:25;3.63;;;1.50;;
3465;SDS011;1747;48.884;9.160;2022-08-01T07:03:52;3.65;;;1.38;;
3465;SDS011;1747;48.884;9.160;2022-08-01T07:06:19;4.63;;;1.83;;
3465;SDS011;1747;48.884;9.160;2022-08-01T07:08:47;1.95;;;1.52;;
3465;SDS011;1747;48.884;9.160;2022-08-01T07:11:14;4.47;;;1.60;;
3465;SDS011;1747;48.884;9.160;2022-08-01T07:13:42;1.70;;;1.35;;
3465;SDS011;1747;48.884;9.160;2022-08-01T07:16:10;4.03;;;1.70;;
3465;SDS011;1747;48.884;9.160;2022-08-01T07:18:37;3.22;;;1.70;;
3465;SDS011;1747;48.884;9.160;2022-08-01T07:21:04;6.70;;;1.80;;
3465;SDS011;1747;48.884;9.160;2022-08-01T07:23:31;2.17;;;1.58;;
3465;SDS011;1747;48.884;9.160;2022-08-01T07:25:58;2.20;;;1.65;;
3465;SDS011;1747;48.884;9.160;2022-08-01T07:28:26;3.85;;;2.05;;
3465;SDS011;1747;48.884;9.160;2022-08-01T07:30:54;4.22;;;1.80;;
3465;SDS011;1747;48.884;9.160;2022-08-01T07:33:21;4.90;;;1.50;;
3465;SDS011;1747;48.884;9.160;2022-08-01T07:35:48;4.40;;;1.88;;
3465;SDS011;1747;48.884;9.160;2022-08-01T07:38:18;3.83;;;1.55;;
3465;SDS011;1747;48.884;9.160;2022-08-01T07:40:45;1.73;;;1.30;;
3465;SDS011;1747;48.884;9.160;2022-08-01T07:43:11;1.65;;;1.40;;
3465;SDS011;1747;48.884;9.160;2022-08-01T07:45:38;4.65;;;1.60;;
3465;SDS011;1747;48.884;9.160;2022-08-01T07:48:08;2.97;;;1.50;;
3465;SDS011;1747;48.884;9.160;2022-08-01T07:50:35;2.90;;;1.58;;
3465;SDS011;1747;48.884;9.160;2022-08-01T07:53:02;2.17;;;1.58;;
3465;SDS011;1747;48.884;9.160;2022-08-01T07:55:29;3.08;;;1.70;;
3465;SDS011;1747;48.884;9.160;2022-08-01T07:57:56;4.22;;;1.80;;
3465;SDS011;1747;48.884;9.160;2022-08-01T08:00:24;6.55;;;1.88;;
3465;SDS011;1747;48.884;9.160;2022-08-01T08:02:52;2.72;;;1.88;;
3465;SDS011;1747;48.884;9.160;2022-08-01T08:05:20;4.63;;;1.90;;
3465;SDS011;1747;48.884;9.160;2022-08-01T08:07:47;1.95;;;1.70;;
3465;SDS011;1747;48.884;9.160;2022-08-01T08:10:14;2.22;;;1.67;;
3465;SDS011;1747;48.884;9.160;2022-08-01T08:12:41;2.95;;;1.60;;
3465;SDS011;1747;48.884;9.160;2022-08-01T08:15:08;4.50;;;1.38;;
3465;SDS011;1747;48.884;9.160;2022-08-01T08:17:36;2.50;;;1.80;;
3465;SDS011;1747;48.884;9.160;2022-08-01T08:20:03;2.88;;;1.58;;
3465;SDS011;1747;48.884;9.160;2022-08-01T08:22:33;1.95;;;1.67;;
3465;SDS011;1747;48.884;9.160;2022-08-01T08:25:00;4.05;;;1.67;;
3465;SDS011;1747;48.884;9.160;2022-08-01T08:27:27;2.92;;;2.03;;
3465;SDS011;1747;48.884;9.160;2022-08-01T08:29:54;5.18;;;2.20;;
3465;SDS011;1747;48.884;9.160;2022-08-01T08:32:21;4.22;;;2.13;;
3465;SDS011;1747;48.884;9.160;2022-08-01T08:34:47;9.43;;;2.38;;
3465;SDS011;1747;48.884;9.160;2022-08-01T08:37:14;4.32;;;2.10;;
3465;SDS011;1747;48.884;9.160;2022-08-01T08:39:43;3.45;;;1.88;;
3465;SDS011;1747;48.884;9.160;2022-08-01T08:42:10;3.40;;;1.75;;
3465;SDS011;1747;48.884;9.160;2022-08-01T08:44:38;5.03;;;2.08;;
3465;SDS011;1747;48.884;9.160;2022-08-01T08:47:06;5.03;;;1.77;;
3465;SDS011;1747;48.884;9.160;2022-08-01T08:49:35;6.25;;;1.90;;
3465;SDS011;1747;48.884;9.160;2022-08-01T08:52:03;2.65;;;1.83;;
3465;SDS011;1747;48.884;9.160;2022-08-01T08:54:31;2.92;;;2.10;;
3465;SDS011;1747;48.884;9.160;2022-08-01T08:57:00;5.28;;;2.53;;
3465;SDS011;1747;48.884;9.160;2022-08-01T08:59:27;4.38;;;2.13;;
3465;SDS011;1747;48.884;9.160;2022-08-01T09:01:55;4.00;;;2.00;;
3465;SDS011;1747;48.884;9.160;2022-08-01T09:04:22;4.03;;;2.30;;
3465;SDS011;1747;48.884;9.160;2022-08-01T09:06:50;3.95;;;2.97;;
3465;SDS011;1747;48.884;9.160;2022-08-01T09:09:17;5.28;;;2.63;;
3465;SDS011;1747;48.884;9.160;2022-08-01T09:11:44;4.53;;;2.92;;
3465;SDS011;1747;48.884;9.160;2022-08-01T09:14:13;5.07;;;3.30;;
3465;SDS011;1747;48.884;9.160;2022-08-01T09:16:47;7.03;;;3.30;;
3465;SDS011;1747;48.884;9.160;2022-08-01T09:19:24;7.30;;;4.03;;
3465;SDS011;1747;48.884;9.160;2022-08-01T09:21:55;9.02;;;4.15;;
3465;SDS011;1747;48.884;9.160;2022-08-01T09:24:24;8.18;;;4.50;;
3465;SDS011;1747;48.884;9.160;2022-08-01T09:26:51;4.78;;;4.07;;
3465;SDS011;1747;48.884;9.160;2022-08-01T09:29:21;7.07;;;4.63;;
3465;SDS011;1747;48.884;9.160;2022-08-01T09:31:50;6.90;;;4.00;;
3465;SDS011;1747;48.884;9.160;2022-08-01T09:34:23;5.40;;;3.95;;
3465;SDS011;1747;48.884;9.160;2022-08-01T09:36:51;9.43;;;3.75;;
3465;SDS011;1747;48.884;9.160;2022-08-01T09:39:21;5.38;;;3.38;;
3465;SDS011;1747;48.884;9.160;2022-08-01T09:41:49;5.47;;;3.72;;
3465;SDS011;1747;48.884;9.160;2022-08-01T09:44:16;5.15;;;3.35;;
3465;SDS011;1747;48.884;9.160;2022-08-01T09:46:50;3.85;;;3.42;;
3465;SDS011;1747;48.884;9.160;2022-08-01T09:49:29;4.82;;;3.72;;
3465;SDS011;1747;48.884;9.160;2022-08-01T09:51:57;5.57;;;3.35;;
3465;SDS011;1747;48.884;9.160;2022-08-01T09:54:28;6.18;;;3.22;;
3465;SDS011;1747;48.884;9.160;2022-08-01T09:57:06;4.57;;;2.90;;
3465;SDS011;1747;48.884;9.160;2022-08-01T09:59:35;5.40;;;2.90;;
3465;SDS011;1747;48.884;9.160;2022-08-01T10:02:06;5.20;;;2.67;;
3465;SDS011;1747;48.884;9.160;2022-08-01T10:04:35;4.75;;;2.60;;
3465;SDS011;1747;48.884;9.160;2022-08-01T10:07:03;6.25;;;3.03;;
3465;SDS011;1747;48.884;9.160;2022-08-01T10:09:33;2.83;;;2.50;;
3465;SDS011;1747;48.884;9.160;2022-08-01T10:12:02;4.55;;;2.65;;
3465;SDS011;1747;48.884;9.160;2022-08-01T10:14:30;5.95;;;2.63;;
3465;SDS011;1747;48.884;9.160;2022-08-01T10:16:57;3.13;;;2.58;;
3465;SDS011;1747;48.884;9.160;2022-08-01T10:19:27;3.65;;;2.40;;
3465;SDS011;1747;48.884;9.160;2022-08-01T10:21:57;3.05;;;2.25;;
3465;SDS011;1747;48.884;9.160;2022-08-01T10:24:25;4.28;;;2.40;;
3465;SDS011;1747;48.884;9.160;2022-08-01T10:26:55;2.33;;;2.13;;
3465;SDS011;1747;48.884;9.160;2022-08-01T10:29:27;6.53;;;2.42;;
3465;SDS011;1747;48.884;9.160;2022-08-01T10:31:57;2.22;;;2.13;;
3465;SDS011;1747;48.884;9.160;2022-08-01T10:34:24;2.28;;;2.00;;
3465;SDS011;1747;48.884;9.160;2022-08-01T10:36:53;2.55;;;2.05;;
3465;SDS011;1747;48.884;9.160;2022-08-01T10:39:20;4.20;;;2.40;;
3465;SDS011;1747;48.884;9.160;2022-08-01T10:41:48;4.53;;;2.47;;
3465;SDS011;1747;48.884;9.160;2022-08-01T10:44:14;4.50;;;2.10;;
3465;SDS011;1747;48.884;9.160;2022-08-01T10:46:44;2.25;;;2.08;;
3465;SDS011;1747;48.884;9.160;2022-08-01T10:49:16;4.82;;;2.22;;
3465;SDS011;1747;48.884;9.160;2022-08-01T10:51:47;5.95;;;2.47;;
3465;SDS011;1747;48.884;9.160;2022-08-01T10:54:14;2.50;;;2.30;;
3465;SDS011;1747;48.884;9.160;2022-08-01T10:56:42;2.63;;;2.40;;
3465;SDS011;1747;48.884;9.160;2022-08-01T10:59:10;2.40;;;2.10;;
3465;SDS011;1747;48.884;9.160;2022-08-01T11:01:41;2.15;;;1.98;;
3465;SDS011;1747;48.884;9.160;2022-08-01T11:04:08;4.47;;;2.22;;
3465;SDS011;1747;48.884;9.160;2022-08-01T11:06:49;3.33;;;2.08;;
3465;SDS011;1747;48.884;9.160;2022-08-01T11:09:21;3.00;;;2.53;;
3465;SDS011;1747;48.884;9.160;2022-08-01T11:11:57;5.22;;;2.80;;
3465;SDS011;1747;48.884;9.160;2022-08-01T11:14:27;5.35;;;2.50;;
3465;SDS011;1747;48.884;9.160;2022-08-01T11:16:54;2.78;;;2.47;;
3465;SDS011;1747;48.884;9.160;2022-08-01T11:19:21;3.22;;;2.63;;
3465;SDS011;1747;48.884;9.160;2022-08-01T11:22:01;5.43;;;3.00;;
3465;SDS011;1747;48.884;9.160;2022-08-01T11:27:25;5.93;;;2.50;;
3465;SDS011;1747;48.884;9.160;2022-08-01T11:32:48;3.13;;;2.30;;
3465;SDS011;1747;48.884;9.160;2022-08-01T11:35:17;3.05;;;2.25;;
3465;SDS011;1747;48.884;9.160;2022-08-01T11:37:47;2.60;;;2.40;;
3465;SDS011;1747;48.884;9.160;2022-08-01T11:40:14;2.75;;;2.40;;
3465;SDS011;1747;48.884;9.160;2022-08-01T11:42:42;2.83;;;2.40;;
3465;SDS011;1747;48.884;9.160;2022-08-01T11:45:08;2.60;;;2.38;;
3465;SDS011;1747;48.884;9.160;2022-08-01T11:47:46;2.97;;;2.38;;
3465;SDS011;1747;48.884;9.160;2022-08-01T11:50:29;3.47;;;2.55;;
3465;SDS011;1747;48.884;9.160;2022-08-01T11:52:58;2.38;;;2.17;;
3465;SDS011;1747;48.884;9.160;2022-08-01T11:55:26;2.60;;;2.40;;
3465;SDS011;1747;48.884;9.160;2022-08-01T11:57:58;3.25;;;2.28;;
3465;SDS011;1747;48.884;9.160;2022-08-01T12:00:26;5.10;;;2.42;;
3465;SDS011;1747;48.884;9.160;2022-08-01T12:02:59;4.65;;;2.40;;
3465;SDS011;1747;48.884;9.160;2022-08-01T12:05:28;4.10;;;2.35;;
3465;SDS011;1747;48.884;9.160;2022-08-01T12:07:55;2.35;;;2.15;;
3465;SDS011;1747;48.884;9.160;2022-08-01T12:10:25;3.20;;;2.20;;
3465;SDS011;1747;48.884;9.160;2022-08-01T12:12:54;2.42;;;2.22;;
3465;SDS011;1747;48.884;9.160;2022-08-01T12:15:28;2.60;;;2.40;;
3465;SDS011;1747;48.884;9.160;2022-08-01T12:17:56;3.95;;;2.30;;
3465;SDS011;1747;48.884;9.160;2022-08-01T12:20:27;2.58;;;2.30;;
3465;SDS011;1747;48.884;9.160;2022-08-01T12:22:55;2.42;;;2.22;;
3465;SDS011;1747;48.884;9.160;2022-08-01T12:25:22;5.25;;;2.58;;
3465;SDS011;1747;48.884;9.160;2022-08-01T12:27:51;6.43;;;2.30;;
3465;SDS011;1747;48.884;9.160;2022-08-01T12:30:19;5.55;;;2.90;;
3465;SDS011;1747;48.884;9.160;2022-08-01T12:32:49;3.72;;;2.55;;
3465;SDS011;1747;48.884;9.160;2022-08-01T12:35:16;4.00;;;2.42;;
3465;SDS011;1747;48.884;9.160;2022-08-01T12:37:45;4.57;;;2.35;;
3465;SDS011;1747;48.884;9.160;2022-08-01T12:40:13;2.38;;;1.90;;
3465;SDS011;1747;48.884;9.160;2022-08-01T12:42:45;3.58;;;2.22;;
3465;SDS011;1747;48.884;9.160;2022-08-01T12:45:14;4.55;;;2.20;;
3465;SDS011;1747;48.884;9.160;2022-08-01T12:47:45;4.15;;;2.40;;
3465;SDS011;1747;48.884;9.160;2022-08-01T12:50:14;2.50;;;2.25;;
3465;SDS011;1747;48.884;9.160;2022-08-01T12:52:44;2.58;;;2.33;;
3465;SDS011;1747;48.884;9.160;2022-08-01T12:55:13;3.05;;;2.75;;
3465;SDS011;1747;48.884;9.160;2022-08-01T12:57:44;3.20;;;2.65;;
3465;SDS011;1747;48.884;9.160;2022-08-01T13:00:19;2.38;;;2.17;;
3465;SDS011;1747;48.884;9.160;2022-08-01T13:02:47;2.45;;;2.25;;
3465;SDS011;1747;48.884;9.160;2022-08-01T13:05:16;4.72;;;2.00;;
3465;SDS011;1747;48.884;9.160;2022-08-01T13:07:44;4.13;;;2.28;;
3465;SDS011;1747;48.884;9.160;2022-08-01T13:10:13;2.85;;;2.40;;
3465;SDS011;1747;48.884;9.160;2022-08-01T13:12:52;3.75;;;2.35;;
3465;SDS011;1747;48.884;9.160;2022-08-01T13:15:27;3.85;;;2.33;;
3465;SDS011;1747;48.884;9.160;2022-08-01T13:18:00;2.30;;;2.10;;
3465;SDS011;1747;48.884;9.160;2022-08-01T13:20:47;5.70;;;2.50;;
3465;SDS011;1747;48.884;9.160;2022-08-01T13:23:15;5.80;;;2.50;;
3465;SDS011;1747;48.884;9.160;2022-08-01T13:25:49;9.23;;;2.40;;
3465;SDS011;1747;48.884;9.160;2022-08-01T13:28:23;4.05;;;2.17;;
3465;SDS011;1747;48.884;9.160;2022-08-01T13:30:55;3.35;;;2.35;;
3465;SDS011;1747;48.884;9.160;2022-08-01T13:33:24;2.38;;;1.92;;
3465;SDS011;1747;48.884;9.160;2022-08-01T13:35:51;3.50;;;2.00;;
3465;SDS011;1747;48.884;9.160;2022-08-01T13:38:20;3.90;;;2.20;;
3465;SDS011;1747;48.884;9.160;2022-08-01T13:41:08;1.92;;;1.83;;
3465;SDS011;1747;48.884;9.160;2022-08-01T13:43:36;4.00;;;1.85;;
3465;SDS011;1747;48.884;9.160;2022-08-01T13:46:03;2.88;;;2.30;;
3465;SDS011;1747;48.884;9.160;2022-08-01T13:48:30;5.57;;;1.90;;
3465;SDS011;1747;48.884;9.160;2022-08-01T13:50:58;2.40;;;2.08;;
3465;SDS011;1747;48.884;9.160;2022-08-01T13:53:26;4.32;;;2.17;;
3465;SDS011;1747;48.884;9.160;2022-08-01T13:55:53;2.50;;;2.30;;
3465;SDS011;1747;48.884;9.160;2022-08-01T13:58:20;2.30;;;2.10;;
3465;SDS011;1747;48.884;9.160;2022-08-01T14:00:48;3.55;;;2.33;;
3465;SDS011;1747;48.884;9.160;2022-08-01T14:03:15;2.92;;;2.58;;
3465;SDS011;1747;48.884;9.160;2022-08-01T14:05:42;3.03;;;1.95;;
3465;SDS011;1747;48.884;9.160;2022-08-01T14:08:10;2.40;;;2.20;;
3465;SDS011;1747;48.884;9.160;2022-08-01T14:10:38;3.58;;;2.20;;
3465;SDS011;1747;48.884;9.160;2022-08-01T14:13:04;3.78;;;2.17;;
3465;SDS011;1747;48.884;9.160;2022-08-01T14:15:31;4.10;;;2.42;;
3465;SDS011;1747;48.884;9.160;2022-08-01T14:18:00;2.55;;;2.35;;
3465;SDS011;1747;48.884;9.160;2022-08-01T14:20:26;3.15;;;2.60;;
3465;SDS011;1747;48.884;9.160;2022-08-01T14:22:53;4.07;;;2.30;;
3465;SDS011;1747;48.884;9.160;2022-08-01T14:25:20;2.50;;;2.30;;
3465;SDS011;1747;48.884;9.160;2022-08-01T14:27:47;3.00;;;2.67;;
3465;SDS011;1747;48.884;9.160;2022-08-01T14:30:14;7.35;;;2.22;;
3465;SDS011;1747;48.884;9.160;2022-08-01T14:32:41;3.97;;;2.22;;
3465;SDS011;1747;48.884;9.160;2022-08-01T14:35:09;3.17;;;2.17;;
3465;SDS011;1747;48.884;9.160;2022-08-01T14:37:36;4.63;;;2.03;;
3465;SDS011;1747;48.884;9.160;2022-08-01T14:40:03;2.25;;;2.05;;
3465;SDS011;1747;48.884;9.160;2022-08-01T14:42:34;14.55;;;2.65;;
3465;SDS011;1747;48.884;9.160;2022-08-01T14:45:01;2.72;;;2.35;;
3465;SDS011;1747;48.884;9.160;2022-08-01T14:47:33;3.22;;;2.10;;
3465;SDS011;1747;48.884;9.160;2022-08-01T14:50:00;3.38;;;2.15;;
3465;SDS011;1747;48.884;9.160;2022-08-01T14:52:28;2.90;;;2.08;;
3465;SDS011;1747;48.884;9.160;2022-08-01T14:54:55;3.22;;;2.53;;
3465;SDS011;1747;48.884;9.160;2022-08-01T14:57:22;4.90;;;2.10;;
3465;SDS011;1747;48.884;9.160;2022-08-01T14:59:49;4.32;;;2.30;;
3465;SDS011;1747;48.884;9.160;2022-08-01T15:02:15;3.60;;;2.30;;
3465;SDS011;1747;48.884;9.160;2022-08-01T15:04:43;2.67;;;2.47;;
3465;SDS011;1747;48.884;9.160;2022-08-01T15:07:10;4.45;;;2.03;;
3465;SDS011;1747;48.884;9.160;2022-08-01T15:09:39;2.88;;;2.10;;
3465;SDS011;1747;48.884;9.160;2022-08-01T15:12:06;6.72;;;2.03;;
3465;SDS011;1747;48.884;9.160;2022-08-01T15:14:34;3.15;;;2.22;;
3465;SDS011;1747;48.884;9.160;2022-08-01T15:17:16;3.13;;;2.20;;
3465;SDS011;1747;48.884;9.160;2022-08-01T15:19:44;3.10;;;1.63;;
3465;SDS011;1747;48.884;9.160;2022-08-01T15:22:11;3.65;;;2.00;;
3465;SDS011;1747;48.884;9.160;2022-08-01T15:24:40;3.47;;;1.70;;
3465;SDS011;1747;48.884;9.160;2022-08-01T15:27:07;3.58;;;1.83;;
3465;SDS011;1747;48.884;9.160;2022-08-01T15:29:34;2.47;;;1.70;;
3465;SDS011;1747;48.884;9.160;2022-08-01T15:32:02;2.20;;;1.88;;
3465;SDS011;1747;48.884;9.160;2022-08-01T15:34:29;3.28;;;2.05;;
3465;SDS011;1747;48.884;9.160;2022-08-01T15:36:56;1.85;;;1.70;;
3465;SDS011;1747;48.884;9.160;2022-08-01T15:39:23;2.30;;;2.03;;
3465;SDS011;1747;48.884;9.160;2022-08-01T15:41:52;2.90;;;1.80;;
3465;SDS011;1747;48.884;9.160;2022-08-01T15:44:20;1.75;;;1.65;;
3465;SDS011;1747;48.884;9.160;2022-08-01T15:46:47;2.83;;;1.42;;
3465;SDS011;1747;48.884;9.160;2022-08-01T15:49:14;2.70;;;1.70;;
3465;SDS011;1747;48.884;9.160;2022-08-01T15:51:41;2.10;;;1.70;;
3465;SDS011;1747;48.884;9.160;2022-08-01T15:54:08;1.67;;;1.50;;
3465;SDS011;1747;48.884;9.160;2022-08-01T15:56:35;1.92;;;1.70;;
3465;SDS011;1747;48.884;9.160;2022-08-01T15:59:05;1.70;;;1.58;;
3465;SDS011;1747;48.884;9.160;2022-08-01T16:01:32;4.00;;;1.85;;
3465;SDS011;1747;48.884;9.160;2022-08-01T16:03:59;1.95;;;1.63;;
3465;SDS011;1747;48.884;9.160;2022-08-01T16:06:26;3.35;;;1.60;;
3465;SDS011;1747;48.884;9.160;2022-08-01T16:08:56;1.60;;;1.45;;
3465;SDS011;1747;48.884;9.160;2022-08-01T16:11:23;1.75;;;1.50;;
3465;SDS011;1747;48.884;9.160;2022-08-01T16:13:51;1.75;;;1.63;;
3465;SDS011;1747;48.884;9.160;2022-08-01T16:16:20;3.30;;;1.63;;
3465;SDS011;1747;48.884;9.160;2022-08-01T16:18:47;1.92;;;1.63;;
3465;SDS011;1747;48.884;9.160;2022-08-01T16:21:14;1.90;;;1.48;;
3465;SDS011;1747;48.884;9.160;2022-08-01T16:23:42;2.88;;;1.50;;
3465;SDS011;1747;48.884;9.160;2022-08-01T16:26:10;1.48;;;1.30;;
3465;SDS011;1747;48.884;9.160;2022-08-01T16:28:37;3.00;;;1.60;;
3465;SDS011;1747;48.884;9.160;2022-08-01T16:31:04;1.50;;;1.40;;
3465;SDS011;1747;48.884;9.160;2022-08-01T16:33:32;1.98;;;1.42;;
3465;SDS011;1747;48.884;9.160;2022-08-01T16:38:42;1.42;;;1.33;;
3465;SDS011;1747;48.884;9.160;2022-08-01T16:41:09;1.75;;;1.40;;
3465;SDS011;1747;48.884;9.160;2022-08-01T16:43:36;2.78;;;1.42;;
3465;SDS011;1747;48.884;9.160;2022-08-01T16:46:03;5.82;;;1.65;;
3465;SDS011;1747;48.884;9.160;2022-08-01T16:48:32;3.10;;;1.67;;
3465;SDS011;1747;48.884;9.160;2022-08-01T16:50:59;1.40;;;1.30;;
3465;SDS011;1747;48.884;9.160;2022-08-01T16:53:26;2.33;;;1.50;;
3465;SDS011;1747;48.884;9.160;2022-08-01T16:55:53;3.15;;;1.60;;
3465;SDS011;1747;48.884;9.160;2022-08-01T16:58:20;2.17;;;1.27;;
3465;SDS011;1747;48.884;9.160;2022-08-01T17:00:47;2.78;;;1.42;;
3465;SDS011;1747;48.884;9.160;2022-08-01T17:03:17;1.30;;;1.20;;
3465;SDS011;1747;48.884;9.160;2022-08-01T17:05:45;1.92;;;1.42;;
3465;SDS011;1747;48.884;9.160;2022-08-01T17:08:12;1.30;;;1.20;;
3465;SDS011;1747;48.884;9.160;2022-08-01T17:23:31;1.55;;;1.27;;
3465;SDS011;1747;48.884;9.160;2022-08-01T17:25:59;4.07;;;1.35;;
3465;SDS011;1747;48.884;9.160;2022-08-01T17:28:26;4.60;;;1.17;;
3465;SDS011;1747;48.884;9.160;2022-08-01T17:30:53;1.88;;;1.10;;
3465;SDS011;1747;48.884;9.160;2022-08-01T17:33:20;2.75;;;1.23;;
3465;SDS011;1747;48.884;9.160;2022-08-01T17:35:47;4.05;;;1.15;;
3465;SDS011;1747;48.884;9.160;2022-08-01T18:04:01;1.48;;;1.20;;
3465;SDS011;1747;48.884;9.160;2022-08-01T18:06:29;1.67;;;1.30;;
3465;SDS011;1747;48.884;9.160;2022-08-01T18:08:57;3.78;;;1.42;;
3465;SDS011;1747;48.884;9.160;2022-08-01T18:11:23;1.60;;;1.30;;
3465;SDS011;1747;48.884;9.160;2022-08-01T18:13:50;4.25;;;1.17;;
3465;SDS011;1747;48.884;9.160;2022-08-01T18:16:17;3.22;;;1.30;;
3465;SDS011;1747;48.884;9.160;2022-08-01T18:18:44;1.20;;;1.05;;
3465;SDS011;1747;48.884;9.160;2022-08-01T18:34:19;1.92;;;1.40;;
3465;SDS011;1747;48.884;9.160;2022-08-01T18:36:46;3.78;;;1.27;;
3465;SDS011;1747;48.884;9.160;2022-08-01T18:39:13;2.28;;;1.20;;
3465;SDS011;1747;48.884;9.160;2022-08-01T18:41:40;2.75;;;1.10;;
3465;SDS011;1747;48.884;9.160;2022-08-01T20:24:46;3.97;;;0.77;;
3465;SDS011;1747;48.884;9.160;2022-08-01T20:27:19;1.50;;;0.98;;
3465;SDS011;1747;48.884;9.160;2022-08-01T20:29:50;1.50;;;0.80;;
3465;SDS011;1747;48.884;9.160;2022-08-01T20:32:18;3.25;;;1.05;;
3465;SDS011;1747;48.884;9.160;2022-08-01T20:34:45;1.83;;;1.00;;
3465;SDS011;1747;48.884;9.160;2022-08-01T20:54:19;2.35;;;0.90;;
3465;SDS011;1747;48.884;9.160;2022-08-01T20:56:49;1.00;;;0.90;;
3465;SDS011;1747;48.884;9.160;2022-08-01T20:59:18;5.68;;;0.93;;
3465;SDS011;1747;48.884;9.160;2022-08-01T21:01:59;2.80;;;0.88;;
3465;SDS011;1747;48.884;9.160;2022-08-01T21:04:36;1.83;;;1.10;;
3465;SDS011;1747;48.884;9.160;2022-08-01T21:07:10;1.95;;;0.98;;
